sensor_id;sensor_type;location;lat;lon;timestamp;P1;durP1;ratioP1;P2;durP2;ratioP2
69565;SDS011;77486;47.192;39.650;2024-03-23T00:55:58;21.40;;;9.05;;
69565;SDS011;77486;47.192;39.650;2024-03-23T00:58:24;20.35;;;8.93;;
69565;SDS011;77486;47.192;39.650;2024-03-23T01:00:50;22.83;;;9.65;;
69565;SDS011;77486;47.192;39.650;2024-03-23T01:03:15;24.38;;;9.63;;
69565;SDS011;77486;47.192;39.650;2024-03-23T01:05:41;25.10;;;9.18;;
69565;SDS011;77486;47.192;39.650;2024-03-23T01:08:06;21.48;;;9.63;;
69565;SDS011;77486;47.192;39.650;2024-03-23T01:10:32;22.30;;;8.90;;
69565;SDS011;77486;47.192;39.650;2024-03-23T01:12:58;19.60;;;8.75;;
69565;SDS011;77486;47.192;39.650;2024-03-23T01:15:23;18.38;;;8.25;;
69565;SDS011;77486;47.192;39.650;2024-03-23T01:17:49;19.98;;;7.97;;
69565;SDS011;77486;47.192;39.650;2024-03-23T01:20:14;18.73;;;8.00;;
69565;SDS011;77486;47.192;39.650;2024-03-23T01:22:40;19.73;;;7.30;;
69565;SDS011;77486;47.192;39.650;2024-03-23T01:25:05;20.98;;;7.38;;
69565;SDS011;77486;47.192;39.650;2024-03-23T01:27:31;22.02;;;8.85;;
69565;SDS011;77486;47.192;39.650;2024-03-23T01:29:57;21.40;;;8.68;;
69565;SDS011;77486;47.192;39.650;2024-03-23T01:32:22;20.23;;;8.18;;
69565;SDS011;77486;47.192;39.650;2024-03-23T01:34:48;18.50;;;6.60;;
69565;SDS011;77486;47.192;39.650;2024-03-23T01:37:13;20.65;;;8.80;;
69565;SDS011;77486;47.192;39.650;2024-03-23T01:39:39;18.38;;;7.30;;
69565;SDS011;77486;47.192;39.650;2024-03-23T01:42:04;19.20;;;7.22;;
69565;SDS011;77486;47.192;39.650;2024-03-23T01:44:30;17.85;;;7.30;;
69565;SDS011;77486;47.192;39.650;2024-03-23T01:46:56;19.15;;;7.25;;
69565;SDS011;77486;47.192;39.650;2024-03-23T01:49:21;20.88;;;8.05;;
69565;SDS011;77486;47.192;39.650;2024-03-23T01:51:47;18.70;;;7.55;;
69565;SDS011;77486;47.192;39.650;2024-03-23T01:54:13;17.58;;;7.57;;
69565;SDS011;77486;47.192;39.650;2024-03-23T01:56:39;16.98;;;7.22;;
69565;SDS011;77486;47.192;39.650;2024-03-23T01:59:05;19.83;;;8.48;;
69565;SDS011;77486;47.192;39.650;2024-03-23T02:01:31;19.00;;;7.50;;
69565;SDS011;77486;47.192;39.650;2024-03-23T02:03:58;21.80;;;8.23;;
69565;SDS011;77486;47.192;39.650;2024-03-23T02:06:24;19.48;;;7.10;;
69565;SDS011;77486;47.192;39.650;2024-03-23T02:08:50;24.70;;;7.75;;
69565;SDS011;77486;47.192;39.650;2024-03-23T02:11:16;19.20;;;7.88;;
69565;SDS011;77486;47.192;39.650;2024-03-23T02:13:42;21.77;;;7.93;;
69565;SDS011;77486;47.192;39.650;2024-03-23T02:16:07;16.73;;;7.43;;
69565;SDS011;77486;47.192;39.650;2024-03-23T02:18:33;20.42;;;7.65;;
69565;SDS011;77486;47.192;39.650;2024-03-23T02:20:59;21.88;;;8.38;;
69565;SDS011;77486;47.192;39.650;2024-03-23T02:23:25;23.27;;;7.95;;
69565;SDS011;77486;47.192;39.650;2024-03-23T02:25:50;21.42;;;8.35;;
69565;SDS011;77486;47.192;39.650;2024-03-23T02:28:16;21.83;;;8.77;;
69565;SDS011;77486;47.192;39.650;2024-03-23T02:30:42;21.90;;;8.93;;
69565;SDS011;77486;47.192;39.650;2024-03-23T02:33:08;21.13;;;8.82;;
69565;SDS011;77486;47.192;39.650;2024-03-23T02:35:33;21.25;;;9.13;;
69565;SDS011;77486;47.192;39.650;2024-03-23T02:37:59;21.60;;;8.57;;
69565;SDS011;77486;47.192;39.650;2024-03-23T02:40:25;20.42;;;8.88;;
69565;SDS011;77486;47.192;39.650;2024-03-23T02:42:51;21.17;;;9.02;;
69565;SDS011;77486;47.192;39.650;2024-03-23T02:45:17;23.15;;;8.50;;
69565;SDS011;77486;47.192;39.650;2024-03-23T02:47:43;18.55;;;8.45;;
69565;SDS011;77486;47.192;39.650;2024-03-23T02:50:08;20.05;;;7.95;;
69565;SDS011;77486;47.192;39.650;2024-03-23T02:52:34;20.48;;;9.07;;
69565;SDS011;77486;47.192;39.650;2024-03-23T02:55:00;21.45;;;9.00;;
69565;SDS011;77486;47.192;39.650;2024-03-23T02:57:27;21.00;;;9.20;;
69565;SDS011;77486;47.192;39.650;2024-03-23T02:59:53;22.02;;;9.30;;
69565;SDS011;77486;47.192;39.650;2024-03-23T03:02:18;23.67;;;9.13;;
69565;SDS011;77486;47.192;39.650;2024-03-23T03:04:44;22.38;;;9.65;;
69565;SDS011;77486;47.192;39.650;2024-03-23T03:07:10;20.27;;;9.23;;
69565;SDS011;77486;47.192;39.650;2024-03-23T03:09:35;21.60;;;9.23;;
69565;SDS011;77486;47.192;39.650;2024-03-23T03:12:01;23.80;;;9.77;;
69565;SDS011;77486;47.192;39.650;2024-03-23T03:14:28;20.60;;;8.85;;
69565;SDS011;77486;47.192;39.650;2024-03-23T03:16:53;22.02;;;9.13;;
69565;SDS011;77486;47.192;39.650;2024-03-23T03:19:19;23.70;;;9.80;;
69565;SDS011;77486;47.192;39.650;2024-03-23T03:21:45;25.33;;;9.48;;
69565;SDS011;77486;47.192;39.650;2024-03-23T03:24:10;26.67;;;8.70;;
69565;SDS011;77486;47.192;39.650;2024-03-23T03:26:36;21.23;;;9.32;;
69565;SDS011;77486;47.192;39.650;2024-03-23T03:29:02;26.27;;;9.88;;
69565;SDS011;77486;47.192;39.650;2024-03-23T03:31:27;23.58;;;10.40;;
69565;SDS011;77486;47.192;39.650;2024-03-23T03:33:53;21.75;;;8.82;;
69565;SDS011;77486;47.192;39.650;2024-03-23T03:36:19;22.63;;;9.93;;
69565;SDS011;77486;47.192;39.650;2024-03-23T03:38:45;23.58;;;10.65;;
69565;SDS011;77486;47.192;39.650;2024-03-23T03:41:10;24.30;;;10.02;;
69565;SDS011;77486;47.192;39.650;2024-03-23T03:43:36;23.08;;;9.73;;
69565;SDS011;77486;47.192;39.650;2024-03-23T03:46:01;21.05;;;9.07;;
69565;SDS011;77486;47.192;39.650;2024-03-23T03:48:27;21.02;;;9.02;;
69565;SDS011;77486;47.192;39.650;2024-03-23T03:50:53;22.35;;;10.00;;
69565;SDS011;77486;47.192;39.650;2024-03-23T03:53:19;21.98;;;9.23;;
69565;SDS011;77486;47.192;39.650;2024-03-23T03:55:45;19.83;;;8.82;;
69565;SDS011;77486;47.192;39.650;2024-03-23T03:58:11;28.50;;;10.63;;
69565;SDS011;77486;47.192;39.650;2024-03-23T04:00:36;28.95;;;13.45;;
69565;SDS011;77486;47.192;39.650;2024-03-23T04:03:02;25.42;;;10.57;;
69565;SDS011;77486;47.192;39.650;2024-03-23T04:05:28;23.08;;;9.77;;
69565;SDS011;77486;47.192;39.650;2024-03-23T04:07:54;21.95;;;10.20;;
69565;SDS011;77486;47.192;39.650;2024-03-23T04:10:19;17.98;;;8.93;;
69565;SDS011;77486;47.192;39.650;2024-03-23T04:12:47;23.67;;;10.40;;
69565;SDS011;77486;47.192;39.650;2024-03-23T04:15:13;26.80;;;11.07;;
69565;SDS011;77486;47.192;39.650;2024-03-23T04:17:39;26.10;;;11.60;;
69565;SDS011;77486;47.192;39.650;2024-03-23T04:20:06;31.95;;;12.35;;
69565;SDS011;77486;47.192;39.650;2024-03-23T04:25:01;21.67;;;9.80;;
69565;SDS011;77486;47.192;39.650;2024-03-23T04:27:34;28.10;;;10.23;;
69565;SDS011;77486;47.192;39.650;2024-03-23T04:30:00;26.25;;;9.55;;
69565;SDS011;77486;47.192;39.650;2024-03-23T04:32:26;26.88;;;9.25;;
69565;SDS011;77486;47.192;39.650;2024-03-23T04:34:53;26.40;;;9.82;;
69565;SDS011;77486;47.192;39.650;2024-03-23T04:37:23;27.77;;;10.32;;
69565;SDS011;77486;47.192;39.650;2024-03-23T04:39:48;26.00;;;10.48;;
69565;SDS011;77486;47.192;39.650;2024-03-23T04:42:17;26.45;;;10.68;;
69565;SDS011;77486;47.192;39.650;2024-03-23T04:44:42;23.45;;;9.55;;
69565;SDS011;77486;47.192;39.650;2024-03-23T04:47:08;21.63;;;9.32;;
69565;SDS011;77486;47.192;39.650;2024-03-23T04:49:34;22.20;;;9.35;;
69565;SDS011;77486;47.192;39.650;2024-03-23T04:52:02;19.23;;;8.75;;
69565;SDS011;77486;47.192;39.650;2024-03-23T04:54:28;22.55;;;9.55;;
69565;SDS011;77486;47.192;39.650;2024-03-23T04:56:54;22.88;;;9.32;;
69565;SDS011;77486;47.192;39.650;2024-03-23T04:59:20;21.13;;;8.80;;
69565;SDS011;77486;47.192;39.650;2024-03-23T05:01:45;24.67;;;8.57;;
69565;SDS011;77486;47.192;39.650;2024-03-23T05:04:11;23.73;;;9.60;;
69565;SDS011;77486;47.192;39.650;2024-03-23T05:06:36;25.55;;;10.02;;
69565;SDS011;77486;47.192;39.650;2024-03-23T05:09:02;24.27;;;10.32;;
69565;SDS011;77486;47.192;39.650;2024-03-23T05:11:37;20.42;;;9.23;;
69565;SDS011;77486;47.192;39.650;2024-03-23T05:14:03;23.73;;;9.88;;
69565;SDS011;77486;47.192;39.650;2024-03-23T05:16:29;22.80;;;8.95;;
69565;SDS011;77486;47.192;39.650;2024-03-23T05:18:55;22.13;;;9.18;;
69565;SDS011;77486;47.192;39.650;2024-03-23T05:21:20;24.67;;;9.40;;
69565;SDS011;77486;47.192;39.650;2024-03-23T05:23:46;20.95;;;8.32;;
69565;SDS011;77486;47.192;39.650;2024-03-23T05:26:11;20.92;;;8.95;;
69565;SDS011;77486;47.192;39.650;2024-03-23T05:28:37;20.75;;;9.10;;
69565;SDS011;77486;47.192;39.650;2024-03-23T05:31:02;19.55;;;9.07;;
69565;SDS011;77486;47.192;39.650;2024-03-23T05:33:28;22.42;;;8.68;;
69565;SDS011;77486;47.192;39.650;2024-03-23T05:35:57;22.60;;;9.82;;
69565;SDS011;77486;47.192;39.650;2024-03-23T05:38:24;24.20;;;9.73;;
69565;SDS011;77486;47.192;39.650;2024-03-23T05:40:53;22.52;;;9.45;;
69565;SDS011;77486;47.192;39.650;2024-03-23T05:43:20;18.80;;;8.73;;
69565;SDS011;77486;47.192;39.650;2024-03-23T05:45:45;19.63;;;8.68;;
69565;SDS011;77486;47.192;39.650;2024-03-23T05:48:11;21.25;;;9.07;;
69565;SDS011;77486;47.192;39.650;2024-03-23T05:50:37;19.50;;;9.15;;
69565;SDS011;77486;47.192;39.650;2024-03-23T05:53:02;20.42;;;9.07;;
69565;SDS011;77486;47.192;39.650;2024-03-23T05:55:30;20.70;;;8.15;;
69565;SDS011;77486;47.192;39.650;2024-03-23T05:57:55;19.60;;;8.77;;
69565;SDS011;77486;47.192;39.650;2024-03-23T06:00:21;27.63;;;8.32;;
69565;SDS011;77486;47.192;39.650;2024-03-23T06:02:46;22.05;;;7.95;;
69565;SDS011;77486;47.192;39.650;2024-03-23T06:05:12;20.08;;;7.78;;
69565;SDS011;77486;47.192;39.650;2024-03-23T06:07:38;17.80;;;7.20;;
69565;SDS011;77486;47.192;39.650;2024-03-23T06:10:04;17.92;;;7.40;;
69565;SDS011;77486;47.192;39.650;2024-03-23T06:12:31;20.35;;;8.68;;
69565;SDS011;77486;47.192;39.650;2024-03-23T06:14:57;21.48;;;8.50;;
69565;SDS011;77486;47.192;39.650;2024-03-23T06:17:23;21.67;;;9.00;;
69565;SDS011;77486;47.192;39.650;2024-03-23T06:19:48;17.80;;;7.55;;
69565;SDS011;77486;47.192;39.650;2024-03-23T06:22:14;20.65;;;7.20;;
69565;SDS011;77486;47.192;39.650;2024-03-23T06:24:40;19.48;;;8.13;;
69565;SDS011;77486;47.192;39.650;2024-03-23T06:27:06;18.48;;;7.60;;
69565;SDS011;77486;47.192;39.650;2024-03-23T06:29:31;20.48;;;7.85;;
69565;SDS011;77486;47.192;39.650;2024-03-23T06:31:57;19.42;;;8.13;;
69565;SDS011;77486;47.192;39.650;2024-03-23T06:34:23;16.35;;;6.88;;
69565;SDS011;77486;47.192;39.650;2024-03-23T06:36:48;18.85;;;7.90;;
69565;SDS011;77486;47.192;39.650;2024-03-23T06:39:14;19.42;;;7.30;;
69565;SDS011;77486;47.192;39.650;2024-03-23T06:41:50;21.38;;;8.20;;
69565;SDS011;77486;47.192;39.650;2024-03-23T06:44:18;19.15;;;7.68;;
69565;SDS011;77486;47.192;39.650;2024-03-23T06:46:44;17.15;;;7.40;;
69565;SDS011;77486;47.192;39.650;2024-03-23T06:49:10;15.57;;;6.95;;
69565;SDS011;77486;47.192;39.650;2024-03-23T06:51:35;20.13;;;8.02;;
69565;SDS011;77486;47.192;39.650;2024-03-23T06:54:03;18.27;;;7.43;;
69565;SDS011;77486;47.192;39.650;2024-03-23T06:56:29;19.05;;;7.90;;
69565;SDS011;77486;47.192;39.650;2024-03-23T06:58:55;19.33;;;7.88;;
69565;SDS011;77486;47.192;39.650;2024-03-23T07:01:21;17.70;;;8.55;;
69565;SDS011;77486;47.192;39.650;2024-03-23T07:03:46;21.15;;;8.75;;
69565;SDS011;77486;47.192;39.650;2024-03-23T07:06:12;25.15;;;8.02;;
69565;SDS011;77486;47.192;39.650;2024-03-23T07:08:37;19.33;;;8.52;;
69565;SDS011;77486;47.192;39.650;2024-03-23T07:11:03;19.83;;;8.00;;
69565;SDS011;77486;47.192;39.650;2024-03-23T07:13:30;19.55;;;7.65;;
69565;SDS011;77486;47.192;39.650;2024-03-23T07:15:55;17.13;;;7.57;;
69565;SDS011;77486;47.192;39.650;2024-03-23T07:18:22;17.73;;;7.00;;
69565;SDS011;77486;47.192;39.650;2024-03-23T07:20:57;23.10;;;7.57;;
69565;SDS011;77486;47.192;39.650;2024-03-23T07:23:23;19.40;;;7.43;;
69565;SDS011;77486;47.192;39.650;2024-03-23T07:26:10;19.17;;;7.43;;
69565;SDS011;77486;47.192;39.650;2024-03-23T07:28:35;17.65;;;7.25;;
69565;SDS011;77486;47.192;39.650;2024-03-23T07:33:27;19.83;;;7.55;;
69565;SDS011;77486;47.192;39.650;2024-03-23T07:35:53;20.85;;;8.38;;
69565;SDS011;77486;47.192;39.650;2024-03-23T07:38:19;19.33;;;8.13;;
69565;SDS011;77486;47.192;39.650;2024-03-23T07:40:44;23.48;;;8.07;;
69565;SDS011;77486;47.192;39.650;2024-03-23T07:43:09;20.50;;;8.05;;
69565;SDS011;77486;47.192;39.650;2024-03-23T07:45:35;18.13;;;6.85;;
69565;SDS011;77486;47.192;39.650;2024-03-23T07:48:02;19.08;;;7.93;;
69565;SDS011;77486;47.192;39.650;2024-03-23T07:50:28;18.08;;;7.63;;
69565;SDS011;77486;47.192;39.650;2024-03-23T07:52:54;17.05;;;7.43;;
69565;SDS011;77486;47.192;39.650;2024-03-23T07:55:19;18.73;;;7.60;;
69565;SDS011;77486;47.192;39.650;2024-03-23T07:57:46;18.77;;;7.07;;
69565;SDS011;77486;47.192;39.650;2024-03-23T08:00:12;19.70;;;7.25;;
69565;SDS011;77486;47.192;39.650;2024-03-23T08:02:38;16.30;;;6.93;;
69565;SDS011;77486;47.192;39.650;2024-03-23T08:05:04;19.77;;;8.00;;
69565;SDS011;77486;47.192;39.650;2024-03-23T08:07:30;18.67;;;7.25;;
69565;SDS011;77486;47.192;39.650;2024-03-23T08:09:55;21.58;;;7.80;;
69565;SDS011;77486;47.192;39.650;2024-03-23T08:12:21;21.90;;;7.07;;
69565;SDS011;77486;47.192;39.650;2024-03-23T08:14:46;22.25;;;7.55;;
69565;SDS011;77486;47.192;39.650;2024-03-23T08:17:12;18.95;;;7.30;;
69565;SDS011;77486;47.192;39.650;2024-03-23T08:19:37;19.05;;;7.43;;
69565;SDS011;77486;47.192;39.650;2024-03-23T08:22:03;19.27;;;7.88;;
69565;SDS011;77486;47.192;39.650;2024-03-23T08:24:28;17.17;;;6.65;;
69565;SDS011;77486;47.192;39.650;2024-03-23T08:26:55;18.85;;;7.25;;
69565;SDS011;77486;47.192;39.650;2024-03-23T08:29:20;17.90;;;6.97;;
69565;SDS011;77486;47.192;39.650;2024-03-23T08:31:46;18.08;;;6.32;;
69565;SDS011;77486;47.192;39.650;2024-03-23T08:34:12;18.77;;;6.95;;
69565;SDS011;77486;47.192;39.650;2024-03-23T08:36:37;16.05;;;6.03;;
69565;SDS011;77486;47.192;39.650;2024-03-23T08:39:03;17.40;;;6.55;;
69565;SDS011;77486;47.192;39.650;2024-03-23T08:41:28;16.52;;;6.88;;
69565;SDS011;77486;47.192;39.650;2024-03-23T08:43:54;17.95;;;7.15;;
69565;SDS011;77486;47.192;39.650;2024-03-23T08:46:20;22.80;;;7.10;;
69565;SDS011;77486;47.192;39.650;2024-03-23T08:48:46;15.90;;;6.25;;
69565;SDS011;77486;47.192;39.650;2024-03-23T08:51:14;17.25;;;6.13;;
69565;SDS011;77486;47.192;39.650;2024-03-23T08:53:41;20.23;;;6.03;;
69565;SDS011;77486;47.192;39.650;2024-03-23T08:56:07;20.40;;;7.10;;
69565;SDS011;77486;47.192;39.650;2024-03-23T08:58:34;13.35;;;5.85;;
69565;SDS011;77486;47.192;39.650;2024-03-23T09:01:07;16.90;;;5.63;;
69565;SDS011;77486;47.192;39.650;2024-03-23T09:03:38;13.45;;;5.22;;
69565;SDS011;77486;47.192;39.650;2024-03-23T09:06:10;15.93;;;6.45;;
69565;SDS011;77486;47.192;39.650;2024-03-23T09:08:38;17.65;;;6.32;;
69565;SDS011;77486;47.192;39.650;2024-03-23T09:11:06;13.55;;;6.18;;
69565;SDS011;77486;47.192;39.650;2024-03-23T09:13:36;16.48;;;6.47;;
69565;SDS011;77486;47.192;39.650;2024-03-23T09:16:02;15.45;;;6.03;;
69565;SDS011;77486;47.192;39.650;2024-03-23T09:18:31;15.63;;;6.22;;
69565;SDS011;77486;47.192;39.650;2024-03-23T09:20:57;19.67;;;7.47;;
69565;SDS011;77486;47.192;39.650;2024-03-23T09:23:23;17.58;;;7.32;;
69565;SDS011;77486;47.192;39.650;2024-03-23T09:25:48;21.00;;;7.53;;
69565;SDS011;77486;47.192;39.650;2024-03-23T09:28:14;19.55;;;7.63;;
69565;SDS011;77486;47.192;39.650;2024-03-23T09:30:39;19.00;;;7.55;;
69565;SDS011;77486;47.192;39.650;2024-03-23T09:33:10;21.20;;;8.57;;
69565;SDS011;77486;47.192;39.650;2024-03-23T09:35:37;20.30;;;8.23;;
69565;SDS011;77486;47.192;39.650;2024-03-23T09:38:03;20.50;;;8.85;;
69565;SDS011;77486;47.192;39.650;2024-03-23T09:40:29;22.63;;;8.35;;
69565;SDS011;77486;47.192;39.650;2024-03-23T09:42:55;22.90;;;8.85;;
69565;SDS011;77486;47.192;39.650;2024-03-23T09:45:26;20.60;;;8.38;;
69565;SDS011;77486;47.192;39.650;2024-03-23T09:47:54;21.85;;;7.95;;
69565;SDS011;77486;47.192;39.650;2024-03-23T09:50:20;24.92;;;9.57;;
69565;SDS011;77486;47.192;39.650;2024-03-23T09:52:46;19.00;;;8.23;;
69565;SDS011;77486;47.192;39.650;2024-03-23T09:55:12;20.17;;;8.50;;
69565;SDS011;77486;47.192;39.650;2024-03-23T09:57:39;23.00;;;8.63;;
69565;SDS011;77486;47.192;39.650;2024-03-23T10:00:05;25.10;;;9.77;;
69565;SDS011;77486;47.192;39.650;2024-03-23T10:02:31;19.25;;;7.97;;
69565;SDS011;77486;47.192;39.650;2024-03-23T10:04:57;21.95;;;8.07;;
69565;SDS011;77486;47.192;39.650;2024-03-23T10:07:23;19.83;;;7.85;;
69565;SDS011;77486;47.192;39.650;2024-03-23T10:09:48;21.10;;;7.55;;
69565;SDS011;77486;47.192;39.650;2024-03-23T10:12:18;16.42;;;7.38;;
69565;SDS011;77486;47.192;39.650;2024-03-23T10:14:44;18.02;;;7.05;;
69565;SDS011;77486;47.192;39.650;2024-03-23T10:19:40;16.75;;;6.72;;
69565;SDS011;77486;47.192;39.650;2024-03-23T10:22:08;17.77;;;7.80;;
69565;SDS011;77486;47.192;39.650;2024-03-23T10:24:34;18.70;;;7.50;;
69565;SDS011;77486;47.192;39.650;2024-03-23T10:27:00;19.60;;;7.63;;
69565;SDS011;77486;47.192;39.650;2024-03-23T10:29:25;14.48;;;6.70;;
69565;SDS011;77486;47.192;39.650;2024-03-23T10:31:53;19.65;;;7.32;;
69565;SDS011;77486;47.192;39.650;2024-03-23T10:34:26;17.25;;;6.72;;
69565;SDS011;77486;47.192;39.650;2024-03-23T10:36:53;15.07;;;5.70;;
69565;SDS011;77486;47.192;39.650;2024-03-23T10:39:20;24.67;;;9.77;;
69565;SDS011;77486;47.192;39.650;2024-03-23T10:41:48;19.92;;;7.80;;
69565;SDS011;77486;47.192;39.650;2024-03-23T10:44:17;18.75;;;7.65;;
69565;SDS011;77486;47.192;39.650;2024-03-23T10:46:44;16.92;;;6.80;;
69565;SDS011;77486;47.192;39.650;2024-03-23T10:49:10;16.88;;;7.32;;
69565;SDS011;77486;47.192;39.650;2024-03-23T10:51:36;17.75;;;6.45;;
69565;SDS011;77486;47.192;39.650;2024-03-23T10:54:04;16.33;;;6.85;;
69565;SDS011;77486;47.192;39.650;2024-03-23T10:56:32;18.17;;;6.70;;
69565;SDS011;77486;47.192;39.650;2024-03-23T10:59:01;19.35;;;7.70;;
69565;SDS011;77486;47.192;39.650;2024-03-23T11:01:32;19.52;;;8.13;;
69565;SDS011;77486;47.192;39.650;2024-03-23T11:03:57;19.33;;;7.03;;
69565;SDS011;77486;47.192;39.650;2024-03-23T11:06:38;16.92;;;7.50;;
69565;SDS011;77486;47.192;39.650;2024-03-23T11:09:52;17.65;;;7.35;;
69565;SDS011;77486;47.192;39.650;2024-03-23T11:14:46;18.25;;;7.03;;
69565;SDS011;77486;47.192;39.650;2024-03-23T11:17:19;16.50;;;6.90;;
69565;SDS011;77486;47.192;39.650;2024-03-23T11:19:52;16.20;;;6.63;;
69565;SDS011;77486;47.192;39.650;2024-03-23T11:25:03;16.10;;;6.68;;
69565;SDS011;77486;47.192;39.650;2024-03-23T11:27:37;17.30;;;6.78;;
69565;SDS011;77486;47.192;39.650;2024-03-23T11:30:10;16.58;;;6.85;;
69565;SDS011;77486;47.192;39.650;2024-03-23T11:32:40;16.75;;;6.43;;
69565;SDS011;77486;47.192;39.650;2024-03-23T11:35:07;17.20;;;6.63;;
69565;SDS011;77486;47.192;39.650;2024-03-23T11:37:35;14.15;;;7.07;;
69565;SDS011;77486;47.192;39.650;2024-03-23T11:40:16;15.60;;;6.95;;
69565;SDS011;77486;47.192;39.650;2024-03-23T11:42:43;16.48;;;6.63;;
69565;SDS011;77486;47.192;39.650;2024-03-23T11:45:09;16.52;;;6.40;;
69565;SDS011;77486;47.192;39.650;2024-03-23T11:47:35;22.05;;;10.00;;
69565;SDS011;77486;47.192;39.650;2024-03-23T11:50:00;13.27;;;5.57;;
69565;SDS011;77486;47.192;39.650;2024-03-23T11:52:26;14.40;;;6.80;;
69565;SDS011;77486;47.192;39.650;2024-03-23T11:54:51;13.90;;;6.28;;
69565;SDS011;77486;47.192;39.650;2024-03-23T11:57:27;17.35;;;6.70;;
69565;SDS011;77486;47.192;39.650;2024-03-23T11:59:53;15.95;;;6.68;;
69565;SDS011;77486;47.192;39.650;2024-03-23T12:02:18;18.10;;;6.88;;
69565;SDS011;77486;47.192;39.650;2024-03-23T12:04:44;18.90;;;7.32;;
69565;SDS011;77486;47.192;39.650;2024-03-23T12:07:19;13.98;;;6.07;;
69565;SDS011;77486;47.192;39.650;2024-03-23T12:09:46;22.52;;;7.18;;
69565;SDS011;77486;47.192;39.650;2024-03-23T12:12:27;15.98;;;6.50;;
69565;SDS011;77486;47.192;39.650;2024-03-23T12:15:05;17.10;;;6.80;;
69565;SDS011;77486;47.192;39.650;2024-03-23T12:17:32;17.85;;;6.60;;
69565;SDS011;77486;47.192;39.650;2024-03-23T12:19:58;16.90;;;7.22;;
69565;SDS011;77486;47.192;39.650;2024-03-23T12:22:23;19.55;;;6.30;;
69565;SDS011;77486;47.192;39.650;2024-03-23T12:24:50;18.35;;;6.72;;
69565;SDS011;77486;47.192;39.650;2024-03-23T12:27:16;18.42;;;6.68;;
69565;SDS011;77486;47.192;39.650;2024-03-23T12:29:42;13.85;;;6.05;;
69565;SDS011;77486;47.192;39.650;2024-03-23T12:32:10;16.50;;;6.65;;
69565;SDS011;77486;47.192;39.650;2024-03-23T12:34:36;20.42;;;7.20;;
69565;SDS011;77486;47.192;39.650;2024-03-23T12:37:01;19.23;;;7.40;;
69565;SDS011;77486;47.192;39.650;2024-03-23T12:39:27;14.43;;;6.47;;
69565;SDS011;77486;47.192;39.650;2024-03-23T12:41:53;14.55;;;5.90;;
69565;SDS011;77486;47.192;39.650;2024-03-23T12:44:18;15.38;;;6.18;;
69565;SDS011;77486;47.192;39.650;2024-03-23T12:46:44;15.98;;;6.28;;
69565;SDS011;77486;47.192;39.650;2024-03-23T12:49:10;15.90;;;6.35;;
69565;SDS011;77486;47.192;39.650;2024-03-23T12:51:36;16.98;;;5.93;;
69565;SDS011;77486;47.192;39.650;2024-03-23T12:54:01;20.27;;;10.05;;
69565;SDS011;77486;47.192;39.650;2024-03-23T12:56:27;19.48;;;9.00;;
69565;SDS011;77486;47.192;39.650;2024-03-23T12:58:53;15.68;;;6.55;;
69565;SDS011;77486;47.192;39.650;2024-03-23T13:01:20;14.15;;;6.65;;
69565;SDS011;77486;47.192;39.650;2024-03-23T13:03:46;17.90;;;6.95;;
69565;SDS011;77486;47.192;39.650;2024-03-23T13:06:12;22.88;;;7.82;;
69565;SDS011;77486;47.192;39.650;2024-03-23T13:08:38;17.00;;;7.68;;
69565;SDS011;77486;47.192;39.650;2024-03-23T13:11:05;19.52;;;7.68;;
69565;SDS011;77486;47.192;39.650;2024-03-23T13:13:31;15.95;;;7.03;;
69565;SDS011;77486;47.192;39.650;2024-03-23T13:15:58;16.75;;;5.75;;
69565;SDS011;77486;47.192;39.650;2024-03-23T13:18:23;11.05;;;5.40;;
69565;SDS011;77486;47.192;39.650;2024-03-23T13:20:49;18.50;;;7.25;;
69565;SDS011;77486;47.192;39.650;2024-03-23T13:23:14;18.77;;;7.05;;
69565;SDS011;77486;47.192;39.650;2024-03-23T13:25:40;13.70;;;6.38;;
69565;SDS011;77486;47.192;39.650;2024-03-23T13:28:06;15.80;;;6.40;;
69565;SDS011;77486;47.192;39.650;2024-03-23T13:30:31;17.88;;;6.45;;
69565;SDS011;77486;47.192;39.650;2024-03-23T13:32:57;18.33;;;6.18;;
69565;SDS011;77486;47.192;39.650;2024-03-23T13:35:22;17.25;;;6.53;;
69565;SDS011;77486;47.192;39.650;2024-03-23T13:37:48;21.20;;;11.35;;
69565;SDS011;77486;47.192;39.650;2024-03-23T13:40:13;15.57;;;7.35;;
69565;SDS011;77486;47.192;39.650;2024-03-23T13:42:39;18.35;;;6.97;;
69565;SDS011;77486;47.192;39.650;2024-03-23T13:45:05;20.45;;;8.93;;
69565;SDS011;77486;47.192;39.650;2024-03-23T13:47:31;17.27;;;7.07;;
69565;SDS011;77486;47.192;39.650;2024-03-23T13:49:56;21.85;;;7.50;;
69565;SDS011;77486;47.192;39.650;2024-03-23T13:52:22;26.48;;;10.98;;
69565;SDS011;77486;47.192;39.650;2024-03-23T13:54:51;31.52;;;13.20;;
69565;SDS011;77486;47.192;39.650;2024-03-23T13:57:17;15.55;;;5.55;;
69565;SDS011;77486;47.192;39.650;2024-03-23T13:59:46;16.33;;;6.22;;
69565;SDS011;77486;47.192;39.650;2024-03-23T14:02:12;17.25;;;6.20;;
69565;SDS011;77486;47.192;39.650;2024-03-23T14:04:39;15.88;;;5.85;;
69565;SDS011;77486;47.192;39.650;2024-03-23T14:07:05;17.65;;;6.43;;
69565;SDS011;77486;47.192;39.650;2024-03-23T14:09:32;51.92;;;19.70;;
69565;SDS011;77486;47.192;39.650;2024-03-23T14:11:57;31.35;;;12.07;;
69565;SDS011;77486;47.192;39.650;2024-03-23T14:14:25;14.80;;;6.22;;
69565;SDS011;77486;47.192;39.650;2024-03-23T14:16:51;15.95;;;6.60;;
69565;SDS011;77486;47.192;39.650;2024-03-23T14:19:16;19.75;;;7.80;;
69565;SDS011;77486;47.192;39.650;2024-03-23T14:21:42;16.90;;;6.85;;
69565;SDS011;77486;47.192;39.650;2024-03-23T14:24:07;18.63;;;7.80;;
69565;SDS011;77486;47.192;39.650;2024-03-23T14:26:34;17.23;;;5.78;;
69565;SDS011;77486;47.192;39.650;2024-03-23T14:29:00;14.43;;;6.18;;
69565;SDS011;77486;47.192;39.650;2024-03-23T14:31:26;14.18;;;6.22;;
69565;SDS011;77486;47.192;39.650;2024-03-23T14:33:51;15.00;;;6.25;;
69565;SDS011;77486;47.192;39.650;2024-03-23T14:36:17;14.15;;;5.60;;
69565;SDS011;77486;47.192;39.650;2024-03-23T14:38:46;19.52;;;6.95;;
69565;SDS011;77486;47.192;39.650;2024-03-23T14:41:13;18.77;;;7.07;;
69565;SDS011;77486;47.192;39.650;2024-03-23T14:43:39;21.67;;;6.45;;
69565;SDS011;77486;47.192;39.650;2024-03-23T14:46:11;18.67;;;6.40;;
69565;SDS011;77486;47.192;39.650;2024-03-23T14:48:40;12.43;;;5.65;;
69565;SDS011;77486;47.192;39.650;2024-03-23T14:51:08;16.20;;;6.75;;
69565;SDS011;77486;47.192;39.650;2024-03-23T14:53:37;12.00;;;5.30;;
69565;SDS011;77486;47.192;39.650;2024-03-23T14:56:08;17.63;;;6.47;;
69565;SDS011;77486;47.192;39.650;2024-03-23T14:58:40;16.98;;;6.30;;
69565;SDS011;77486;47.192;39.650;2024-03-23T15:01:06;12.43;;;5.45;;
69565;SDS011;77486;47.192;39.650;2024-03-23T15:03:36;16.40;;;6.28;;
69565;SDS011;77486;47.192;39.650;2024-03-23T15:06:04;17.05;;;6.93;;
69565;SDS011;77486;47.192;39.650;2024-03-23T15:08:30;14.05;;;5.70;;
69565;SDS011;77486;47.192;39.650;2024-03-23T15:10:58;15.23;;;6.18;;
69565;SDS011;77486;47.192;39.650;2024-03-23T15:13:24;17.20;;;6.20;;
69565;SDS011;77486;47.192;39.650;2024-03-23T15:15:50;17.02;;;6.50;;
69565;SDS011;77486;47.192;39.650;2024-03-23T15:18:17;15.48;;;6.15;;
69565;SDS011;77486;47.192;39.650;2024-03-23T15:23:31;14.75;;;5.60;;
69565;SDS011;77486;47.192;39.650;2024-03-23T15:25:58;18.75;;;6.25;;
69565;SDS011;77486;47.192;39.650;2024-03-23T15:28:25;16.27;;;6.60;;